Argonne, Wisconsin
Current Conditions -  °F | °C
As of 7:35 AM on Saturday 20 Dec 2014 (Local Time) from KEGV Reporting Station
Haze Haze  
Wind Chill: 22°   Ceiling: 1400
Heat Index: 22°   Visibility: 2.5mi
Dew Point: 22°   Wind: 0mph
Humidity: 99%   Direction: NA
Pressure: 30.17"   Gusts: NA
Location:  45.66°N, 88.88°W
Report Text: KEGV 201335Z AUTO 00000KT 2 1/2SM BR SCT005 OVC014 M06/M06 A3017 RMK AO2 T10571058
Loading
Personal Weather Stations






























Interactive Weather Map New forecast layout! Learn more

10-Day Weather Forecast

Advertisements
Track Severe Weather on mobile